Attapulgus, Georgia
Current Conditions -  °F | °C
As of 9:35 PM on Sunday 21 Dec 2014 (Local Time) from K2J9 Reporting Station
Overcast Overcast  
Wind Chill: 55°   Ceiling: 300
Heat Index: 55°   Visibility: 1.5mi
Dew Point: 54°   Wind: 5mph
Humidity: 94%   Direction: 60°ENE
Pressure: 30.07"   Gusts: NA
Location:  30.75°N, 84.48°W
Report Text: K2J9 220235Z AUTO 06004KT 1 1/2SM OVC003 13/12 A3007 RMK AO1
Loading
Personal Weather Stations






























Interactive Weather Map New forecast layout! Learn more

10-Day Weather Forecast

Advertisements
Track Severe Weather on mobile